createdAt,value
2019-06-15T00:00:15.751Z,40.30
2019-06-15T00:02:45.008Z,40.50
2019-06-15T00:05:15.047Z,40.60
2019-06-15T00:07:43.804Z,40.60
2019-06-15T00:10:12.771Z,41.40
2019-06-15T00:12:42.013Z,41.80
2019-06-15T00:15:11.438Z,42.10
2019-06-15T00:17:40.219Z,41.90
2019-06-15T00:20:09.924Z,42.10
2019-06-15T00:22:39.376Z,42.30
2019-06-15T00:25:08.636Z,42.30
2019-06-15T00:27:37.739Z,42.60
2019-06-15T00:30:06.996Z,42.90
2019-06-15T00:32:36.120Z,43.30
2019-06-15T00:35:05.909Z,43.60
2019-06-15T00:37:34.793Z,43.80
2019-06-15T00:40:03.957Z,44.00
2019-06-15T00:42:32.859Z,44.40
2019-06-15T00:45:01.972Z,44.70
2019-06-15T00:47:31.037Z,45.10
2019-06-15T00:49:59.853Z,45.10
2019-06-15T00:52:28.749Z,45.10
2019-06-15T00:54:57.678Z,45.40
2019-06-15T00:57:26.567Z,46.00
2019-06-15T00:59:55.540Z,46.30
2019-06-15T01:02:24.534Z,46.80
2019-06-15T01:04:53.389Z,47.30
2019-06-15T01:07:22.233Z,47.50
2019-06-15T01:09:51.171Z,48.60
2019-06-15T01:12:20.183Z,49.20
2019-06-15T01:14:48.975Z,50.30
2019-06-15T01:17:17.848Z,50.80
2019-06-15T01:19:47.035Z,51.10
2019-06-15T01:22:16.022Z,51.90
2019-06-15T01:24:44.848Z,52.90
2019-06-15T01:27:13.617Z,53.10
2019-06-15T01:29:42.464Z,53.40
2019-06-15T01:32:11.626Z,54.10
2019-06-15T01:34:40.615Z,54.20
2019-06-15T01:37:10.091Z,54.10
2019-06-15T01:39:39.055Z,54.90
2019-06-15T01:42:07.890Z,55.10
2019-06-15T01:44:36.709Z,55.90
2019-06-15T01:47:05.771Z,56.00
2019-06-15T01:49:34.536Z,56.10
2019-06-15T01:52:03.369Z,56.10
2019-06-15T01:54:32.347Z,56.40
2019-06-15T01:57:01.397Z,56.70
2019-06-15T01:59:30.295Z,57.50
2019-06-15T02:01:59.251Z,57.30
2019-06-15T02:04:28.188Z,57.30
2019-06-15T02:06:57.003Z,57.00
2019-06-15T02:09:25.857Z,57.10
2019-06-15T02:11:54.684Z,56.50
2019-06-15T02:14:23.685Z,56.70
2019-06-15T02:16:52.411Z,56.60
2019-06-15T02:19:21.515Z,56.60
2019-06-15T02:21:51.207Z,56.80
2019-06-15T02:24:20.213Z,55.90
2019-06-15T02:26:48.995Z,56.10
2019-06-15T02:29:17.791Z,56.30
2019-06-15T02:31:46.967Z,56.70
2019-06-15T02:34:16.544Z,56.80
2019-06-15T02:36:45.576Z,56.50
2019-06-15T02:39:14.412Z,56.20
2019-06-15T02:41:43.374Z,56.70
2019-06-15T02:44:12.389Z,56.60
2019-06-15T02:46:41.403Z,56.50
2019-06-15T02:49:10.568Z,56.80
2019-06-15T02:51:39.809Z,57.10
2019-06-15T02:54:09.020Z,57.60
2019-06-15T02:56:37.829Z,57.90
2019-06-15T02:59:06.790Z,58.60
2019-06-15T03:01:35.626Z,58.90
2019-06-15T03:04:04.510Z,59.10
2019-06-15T03:06:33.777Z,59.40
2019-06-15T03:09:03.398Z,59.20
2019-06-15T03:11:32.620Z,59.40
2019-06-15T03:14:03.018Z,59.50
2019-06-15T03:16:31.752Z,60.00
2019-06-15T03:19:00.483Z,59.90
2019-06-15T03:21:29.261Z,59.90
2019-06-15T03:23:58.079Z,60.70
2019-06-15T03:26:26.811Z,62.20
2019-06-15T03:28:55.555Z,60.90
2019-06-15T03:31:24.289Z,61.00
2019-06-15T03:33:53.135Z,61.10
2019-06-15T03:36:22.160Z,62.50
2019-06-15T03:38:51.182Z,65.20
2019-06-15T03:41:19.980Z,68.70
2019-06-15T03:43:48.771Z,69.70
2019-06-15T03:46:17.620Z,70.40
2019-06-15T03:48:46.424Z,71.20
2019-06-15T03:51:15.204Z,70.60
2019-06-15T03:53:44.023Z,69.90
2019-06-15T03:56:21.759Z,68.70
2019-06-15T03:58:44.050Z,67.70
2019-06-15T04:01:22.280Z,67.00
2019-06-15T04:03:51.238Z,66.00
2019-06-15T04:06:20.143Z,65.70
2019-06-15T04:08:49.017Z,65.20
2019-06-15T04:11:17.856Z,65.30
2019-06-15T04:13:46.883Z,65.00
2019-06-15T04:16:15.930Z,65.40
2019-06-15T04:18:44.658Z,65.10
2019-06-15T04:21:13.434Z,64.90
2019-06-15T04:23:42.525Z,64.30
2019-06-15T04:26:11.292Z,62.40
2019-06-15T04:28:40.046Z,61.40
2019-06-15T04:31:09.082Z,60.90
2019-06-15T04:33:38.135Z,60.70
2019-06-15T04:36:06.893Z,59.30
2019-06-15T04:38:35.659Z,59.30
2019-06-15T04:41:04.560Z,58.70
2019-06-15T04:43:33.637Z,59.10
2019-06-15T04:46:04.058Z,57.00
2019-06-15T04:48:32.793Z,58.00
2019-06-15T04:51:01.846Z,55.50
2019-06-15T04:53:31.473Z,55.90
2019-06-15T04:56:00.304Z,54.00
2019-06-15T04:58:29.164Z,52.60
2019-06-15T05:00:58.460Z,51.60
2019-06-15T05:03:27.240Z,49.70
2019-06-15T05:05:56.089Z,49.40
2019-06-15T05:08:24.925Z,48.50
2019-06-15T05:10:59.454Z,49.10
2019-06-15T05:13:24.419Z,43.80
2019-06-15T05:15:53.771Z,39.50
2019-06-15T05:18:22.548Z,40.80
2019-06-15T05:20:51.388Z,38.90
2019-06-15T05:23:20.377Z,38.40
2019-06-15T05:25:49.248Z,37.30
2019-06-15T05:28:18.068Z,37.10
2019-06-15T05:30:47.077Z,34.50
2019-06-15T05:33:16.356Z,34.40
2019-06-15T05:35:45.105Z,29.10
2019-06-15T05:38:13.834Z,31.30
2019-06-15T05:40:42.581Z,30.20
2019-06-15T05:43:11.436Z,30.00
2019-06-15T05:45:40.300Z,30.40
2019-06-15T05:48:09.173Z,29.40
2019-06-15T05:50:38.534Z,28.60
2019-06-15T05:53:07.836Z,30.50
2019-06-15T05:55:36.589Z,29.60
2019-06-15T05:58:05.928Z,26.20
2019-06-15T06:00:39.294Z,25.80
2019-06-15T06:03:08.140Z,25.70
2019-06-15T06:05:37.201Z,23.80
2019-06-15T06:08:06.288Z,23.60
2019-06-15T06:10:35.021Z,23.60
2019-06-15T06:13:04.158Z,23.50
2019-06-15T06:15:33.058Z,22.60
2019-06-15T06:18:02.093Z,22.20
2019-06-15T06:20:31.147Z,21.50
2019-06-15T06:23:00.000Z,18.80
2019-06-15T06:25:28.835Z,19.40
2019-06-15T06:27:57.704Z,19.60
2019-06-15T06:30:29.945Z,19.20
2019-06-15T06:32:57.105Z,19.90
2019-06-15T06:35:26.051Z,18.80
2019-06-15T06:37:54.955Z,19.40
2019-06-15T06:40:23.900Z,19.90
2019-06-15T06:42:52.868Z,19.50
2019-06-15T06:45:22.162Z,19.00
2019-06-15T06:47:51.289Z,17.20
2019-06-15T06:50:21.164Z,16.40
2019-06-15T06:52:50.015Z,16.50
2019-06-15T06:55:21.650Z,17.80
2019-06-15T06:57:54.842Z,16.80
2019-06-15T07:00:22.340Z,17.50
2019-06-15T07:02:51.472Z,17.60
2019-06-15T07:05:20.738Z,15.40
2019-06-15T07:07:50.297Z,15.30
2019-06-15T07:10:19.216Z,15.30
2019-06-15T07:12:48.139Z,13.70
2019-06-15T07:15:16.975Z,12.70
2019-06-15T07:17:45.726Z,12.10
2019-06-15T07:20:14.847Z,9.20
2019-06-15T07:22:43.603Z,9.20
2019-06-15T07:25:12.737Z,6.10
2019-06-15T07:27:42.293Z,6.80
2019-06-15T07:30:13.563Z,5.80
2019-06-15T07:32:42.707Z,6.10
2019-06-15T07:35:11.713Z,6.70
2019-06-15T07:37:40.488Z,5.00
2019-06-15T07:40:09.793Z,5.10
2019-06-15T07:42:39.669Z,4.90
2019-06-15T07:45:09.289Z,1.60
2019-06-15T07:47:38.186Z,1.90
2019-06-15T07:50:07.089Z,1.10
2019-06-15T07:52:35.924Z,1.00
2019-06-15T07:55:05.657Z,2.00
2019-06-15T07:57:34.521Z,2.70
2019-06-15T08:00:03.482Z,2.90
2019-06-15T08:02:37.057Z,3.30
2019-06-15T08:05:06.623Z,4.30
2019-06-15T08:07:35.460Z,4.90
2019-06-15T08:10:04.970Z,6.40
2019-06-15T08:12:34.535Z,7.00
2019-06-15T08:15:03.608Z,8.00
2019-06-15T08:17:32.688Z,8.00
2019-06-15T08:20:01.617Z,7.00
2019-06-15T08:22:30.525Z,4.70
2019-06-15T08:25:02.997Z,3.60
2019-06-15T08:27:31.804Z,2.50
2019-06-15T08:30:00.680Z,1.20
2019-06-15T08:32:29.796Z,1.00
2019-06-15T08:34:58.567Z,1.00
2019-06-15T08:37:27.357Z,1.00
2019-06-15T08:39:56.346Z,1.00
2019-06-15T08:42:25.207Z,1.00
2019-06-15T08:44:53.974Z,1.00
2019-06-15T08:47:22.744Z,1.00
2019-06-15T08:49:51.679Z,1.00
2019-06-15T08:52:20.550Z,1.00
2019-06-15T08:54:52.547Z,1.00
2019-06-15T08:57:23.799Z,1.00
2019-06-15T09:00:00.587Z,1.00
2019-06-15T09:02:29.599Z,1.00
2019-06-15T09:05:13.266Z,1.00
2019-06-15T09:07:48.479Z,1.00
2019-06-15T09:10:17.667Z,1.00
2019-06-15T09:12:47.260Z,1.00
2019-06-15T09:15:23.608Z,1.00
2019-06-15T09:17:53.075Z,1.00
2019-06-15T09:20:22.041Z,1.00
2019-06-15T09:22:50.935Z,1.00
2019-06-15T09:25:19.766Z,1.00
2019-06-15T09:27:48.595Z,1.00
2019-06-15T09:30:17.445Z,1.00
2019-06-15T09:32:47.815Z,1.00
2019-06-15T09:35:16.643Z,1.00
2019-06-15T09:37:46.499Z,1.00
2019-06-15T09:40:15.778Z,1.00
2019-06-15T09:42:44.625Z,1.00
2019-06-15T09:45:13.539Z,1.00
2019-06-15T09:47:42.437Z,1.00
2019-06-15T09:50:14.907Z,1.00
2019-06-15T09:52:43.748Z,1.00
2019-06-15T09:55:12.959Z,1.00
2019-06-15T09:57:45.023Z,1.00
2019-06-15T10:00:14.197Z,1.00
2019-06-15T10:02:43.020Z,1.00
2019-06-15T10:05:12.348Z,1.00
2019-06-15T10:07:41.505Z,1.00
2019-06-15T10:10:11.768Z,1.00
2019-06-15T10:12:40.659Z,1.00
2019-06-15T10:15:11.790Z,1.00
2019-06-15T10:17:40.652Z,1.00
2019-06-15T10:20:10.186Z,1.00
2019-06-15T10:22:38.923Z,1.00
2019-06-15T10:25:08.560Z,1.00
2019-06-15T10:27:37.375Z,1.00
2019-06-15T10:30:06.364Z,1.00
2019-06-15T10:32:35.165Z,1.00
2019-06-15T10:35:04.533Z,1.00
2019-06-15T10:37:33.370Z,1.00
2019-06-15T10:40:02.162Z,1.00
2019-06-15T10:42:31.079Z,1.00
2019-06-15T10:44:59.865Z,1.00
2019-06-15T10:47:28.619Z,1.00
2019-06-15T10:49:57.475Z,1.00
2019-06-15T10:52:26.328Z,1.00
2019-06-15T10:54:55.127Z,1.00
2019-06-15T10:57:24.150Z,1.00
2019-06-15T10:59:57.209Z,1.00
2019-06-15T11:02:23.489Z,1.00
2019-06-15T11:04:52.525Z,1.00
2019-06-15T11:07:21.402Z,1.00
2019-06-15T11:09:50.299Z,1.00
2019-06-15T11:12:19.554Z,1.00
2019-06-15T11:14:48.388Z,1.00
2019-06-15T11:17:17.391Z,1.00
2019-06-15T11:19:46.556Z,1.00
2019-06-15T11:22:15.406Z,1.00
2019-06-15T11:24:44.509Z,1.00
2019-06-15T11:27:13.487Z,1.00
2019-06-15T11:29:42.244Z,1.00
2019-06-15T11:32:11.261Z,1.00
2019-06-15T11:34:40.124Z,1.00
2019-06-15T11:37:11.609Z,1.00
2019-06-15T11:39:39.569Z,1.00
2019-06-15T11:42:08.307Z,1.00
2019-06-15T11:44:37.362Z,1.00
2019-06-15T11:47:06.416Z,1.00
2019-06-15T11:49:35.237Z,1.00
2019-06-15T11:52:04.106Z,1.00
2019-06-15T11:54:32.936Z,1.00
2019-06-15T11:57:01.737Z,1.00
2019-06-15T11:59:30.859Z,1.00
2019-06-15T12:01:59.688Z,1.00
2019-06-15T12:04:28.692Z,1.00
2019-06-15T12:06:58.056Z,1.00
2019-06-15T12:09:27.108Z,1.00
2019-06-15T12:11:55.899Z,1.00
2019-06-15T12:14:24.972Z,1.00
2019-06-15T12:16:53.847Z,1.00
2019-06-15T12:19:22.637Z,1.00
2019-06-15T12:21:51.772Z,1.00
2019-06-15T12:24:21.039Z,1.00
2019-06-15T12:26:50.385Z,1.00
2019-06-15T12:29:19.635Z,1.00
2019-06-15T12:31:48.593Z,1.00
2019-06-15T12:34:20.904Z,1.00
2019-06-15T12:36:48.129Z,1.00
2019-06-15T12:39:17.042Z,1.00
2019-06-15T12:41:45.890Z,1.00
2019-06-15T12:44:15.238Z,1.00
2019-06-15T12:46:44.001Z,1.00
2019-06-15T12:49:12.782Z,1.00
2019-06-15T12:51:41.894Z,1.00
2019-06-15T12:54:10.982Z,1.00
2019-06-15T12:56:39.824Z,1.00
2019-06-15T12:59:08.696Z,1.00
2019-06-15T13:01:38.102Z,1.00
2019-06-15T13:04:06.945Z,1.00
2019-06-15T13:06:35.956Z,1.00
2019-06-15T13:09:05.788Z,1.00
2019-06-15T13:11:34.888Z,1.00
2019-06-15T13:14:04.106Z,1.00
2019-06-15T13:16:39.523Z,1.00
2019-06-15T13:19:03.745Z,1.00
2019-06-15T13:21:32.800Z,1.00
2019-06-15T13:24:01.553Z,1.00
2019-06-15T13:26:30.422Z,1.00
2019-06-15T13:28:59.484Z,1.00
2019-06-15T13:31:28.320Z,1.00
2019-06-15T13:33:57.042Z,1.00
2019-06-15T13:36:25.851Z,1.00
2019-06-15T13:38:54.656Z,1.00
2019-06-15T13:41:24.611Z,1.00
2019-06-15T13:43:53.495Z,1.00
2019-06-15T13:46:22.349Z,1.00
2019-06-15T13:48:51.488Z,1.00
2019-06-15T13:51:20.289Z,1.00
2019-06-15T13:53:49.161Z,1.00
2019-06-15T13:56:18.207Z,1.00
2019-06-15T13:58:46.978Z,1.00
2019-06-15T14:01:16.088Z,1.00
2019-06-15T14:03:44.858Z,1.00
2019-06-15T14:06:15.021Z,1.00
2019-06-15T14:08:44.373Z,1.00
2019-06-15T14:11:13.201Z,1.00
2019-06-15T14:13:42.283Z,1.00
2019-06-15T14:16:11.052Z,1.00
2019-06-15T14:18:40.151Z,1.00
2019-06-15T14:21:09.459Z,1.00
2019-06-15T14:23:38.656Z,1.00
2019-06-15T14:26:07.499Z,1.00
2019-06-15T14:28:36.528Z,1.00
2019-06-15T14:31:05.398Z,1.00
2019-06-15T14:33:34.561Z,1.00
2019-06-15T14:36:03.478Z,1.00
2019-06-15T14:38:32.331Z,1.00
2019-06-15T14:41:01.101Z,1.00
2019-06-15T14:43:29.939Z,1.00
2019-06-15T14:45:59.931Z,1.00
2019-06-15T14:48:28.847Z,1.00
2019-06-15T14:50:57.918Z,1.00
2019-06-15T14:53:27.001Z,1.00
2019-06-15T14:55:56.473Z,1.00
2019-06-15T14:58:26.301Z,1.00
2019-06-15T15:00:57.149Z,1.00
2019-06-15T15:03:26.394Z,1.00
2019-06-15T15:05:55.192Z,1.00
2019-06-15T15:08:26.208Z,1.00
2019-06-15T15:10:56.319Z,1.00
2019-06-15T15:13:26.438Z,1.00
2019-06-15T15:15:56.976Z,1.00
2019-06-15T15:18:26.983Z,1.00
2019-06-15T15:20:56.455Z,1.00
2019-06-15T15:23:25.459Z,1.00
2019-06-15T15:25:54.495Z,1.00
2019-06-15T15:28:23.223Z,1.00
2019-06-15T15:30:51.968Z,1.00
2019-06-15T15:33:21.052Z,1.00
2019-06-15T15:35:50.379Z,1.10
2019-06-15T15:38:19.226Z,1.00
2019-06-15T15:40:47.991Z,1.00
2019-06-15T15:43:16.956Z,1.30
2019-06-15T15:45:46.042Z,1.00
2019-06-15T15:48:18.531Z,1.00
2019-06-15T15:50:46.989Z,1.00
2019-06-15T15:53:15.866Z,1.00
2019-06-15T15:55:46.789Z,1.00
2019-06-15T15:58:16.687Z,1.00
2019-06-15T16:00:46.837Z,1.00
2019-06-15T16:03:16.058Z,1.00
2019-06-15T16:05:47.223Z,1.00
2019-06-15T16:08:16.409Z,1.00
2019-06-15T16:10:46.144Z,1.00
2019-06-15T16:13:16.613Z,1.00
2019-06-15T16:15:46.202Z,1.40
2019-06-15T16:18:17.353Z,1.00
2019-06-15T16:20:47.097Z,1.60
2019-06-15T16:23:16.218Z,1.00
2019-06-15T16:25:46.201Z,1.00
2019-06-15T16:28:15.397Z,1.00
2019-06-15T16:31:01.703Z,1.10
2019-06-15T16:33:16.164Z,1.00
2019-06-15T16:35:46.642Z,1.00
2019-06-15T16:38:18.874Z,1.00
2019-06-15T16:40:46.954Z,1.00
2019-06-15T16:43:17.525Z,1.00
2019-06-15T16:45:46.762Z,1.00
2019-06-15T16:48:16.741Z,1.00
2019-06-15T16:50:46.983Z,1.00
2019-06-15T16:53:16.809Z,1.00
2019-06-15T16:55:46.804Z,1.00
2019-06-15T16:58:16.292Z,1.00
2019-06-15T17:00:47.417Z,1.00
2019-06-15T17:03:22.103Z,1.00
2019-06-15T17:05:46.711Z,1.00
2019-06-15T17:08:17.245Z,1.00
2019-06-15T17:10:46.271Z,1.00
2019-06-15T17:13:16.083Z,1.00
2019-06-15T17:15:46.819Z,1.00
2019-06-15T17:18:15.643Z,1.00
2019-06-15T17:20:49.251Z,1.00
2019-06-15T17:23:18.444Z,1.00
2019-06-15T17:25:47.306Z,1.00
2019-06-15T17:28:16.122Z,1.00
2019-06-15T17:30:45.425Z,1.00
2019-06-15T17:33:16.647Z,1.00
2019-06-15T17:35:56.146Z,1.00
2019-06-15T17:38:16.735Z,1.00
2019-06-15T17:40:46.185Z,1.00
2019-06-15T17:43:16.159Z,1.00
2019-06-15T17:45:46.905Z,1.00
2019-06-15T17:48:17.471Z,1.00
2019-06-15T17:50:47.784Z,1.00
2019-06-15T17:53:17.078Z,1.00
2019-06-15T17:55:46.657Z,1.00
2019-06-15T17:58:16.940Z,1.00
2019-06-15T18:00:47.134Z,1.00
2019-06-15T18:03:17.160Z,1.00
2019-06-15T18:05:48.111Z,1.00
2019-06-15T18:08:17.109Z,1.00
2019-06-15T18:10:47.636Z,1.00
2019-06-15T18:13:17.352Z,1.00
2019-06-15T18:15:47.521Z,1.00
2019-06-15T18:18:17.426Z,1.00
2019-06-15T18:20:46.492Z,1.00
2019-06-15T18:23:17.351Z,1.00
2019-06-15T18:25:46.920Z,1.00
2019-06-15T18:28:17.536Z,1.00
2019-06-15T18:30:46.951Z,1.00
2019-06-15T18:33:16.251Z,1.00
2019-06-15T18:35:47.397Z,1.00
2019-06-15T18:38:16.216Z,1.00
2019-06-15T18:40:45.069Z,1.00
2019-06-15T18:43:16.458Z,1.00
2019-06-15T18:45:46.925Z,1.00
2019-06-15T18:48:16.802Z,1.00
2019-06-15T18:50:45.996Z,1.00
2019-06-15T18:53:14.751Z,1.20
2019-06-15T18:55:43.611Z,1.10
2019-06-15T18:58:12.327Z,2.20
2019-06-15T19:00:41.300Z,2.30
2019-06-15T19:03:10.051Z,2.40
2019-06-15T19:05:39.313Z,2.80
2019-06-15T19:08:08.094Z,2.70
2019-06-15T19:10:37.352Z,3.20
2019-06-15T19:13:07.568Z,3.60
2019-06-15T19:15:37.212Z,2.40
2019-06-15T19:18:07.269Z,2.20
2019-06-15T19:20:37.387Z,2.30
2019-06-15T19:23:07.125Z,1.20
2019-06-15T19:25:36.595Z,2.50
2019-06-15T19:28:05.701Z,2.20
2019-06-15T19:30:37.127Z,2.90
2019-06-15T19:33:05.259Z,2.40
2019-06-15T19:35:36.328Z,3.10
2019-06-15T19:38:06.314Z,2.70
2019-06-15T19:40:37.835Z,3.20
2019-06-15T19:43:06.582Z,3.10
2019-06-15T19:45:36.994Z,2.80
2019-06-15T19:48:06.760Z,3.40
2019-06-15T19:50:36.440Z,3.50
2019-06-15T19:53:07.016Z,3.40
2019-06-15T19:55:36.424Z,4.10
2019-06-15T19:58:07.161Z,5.30
2019-06-15T20:00:36.598Z,5.50
2019-06-15T20:03:06.963Z,5.90
2019-06-15T20:05:36.993Z,6.00
2019-06-15T20:08:07.079Z,5.80
2019-06-15T20:10:37.033Z,5.90
2019-06-15T20:13:07.197Z,5.50
2019-06-15T20:15:37.844Z,6.20
2019-06-15T20:18:07.255Z,6.50
2019-06-15T20:20:37.188Z,7.00
2019-06-15T20:23:07.461Z,7.10
2019-06-15T20:25:36.973Z,7.40
2019-06-15T20:28:07.201Z,7.50
2019-06-15T20:30:37.044Z,8.20
2019-06-15T20:33:07.777Z,8.00
2019-06-15T20:35:36.536Z,8.90
2019-06-15T20:38:05.388Z,9.10
2019-06-15T20:40:36.583Z,8.50
2019-06-15T20:43:07.398Z,8.80
2019-06-15T20:45:37.113Z,8.40
2019-06-15T20:48:06.952Z,9.10
2019-06-15T20:50:36.325Z,9.70
2019-06-15T20:53:06.042Z,9.20
2019-06-15T20:55:37.166Z,10.50
2019-06-15T20:58:06.491Z,10.70
2019-06-15T21:00:36.723Z,11.10
2019-06-15T21:03:06.761Z,11.10
2019-06-15T21:05:41.589Z,11.50
2019-06-15T21:08:06.999Z,11.00
2019-06-15T21:10:37.261Z,11.90
2019-06-15T21:13:06.323Z,12.10
2019-06-15T21:15:38.549Z,12.10
2019-06-15T21:18:07.349Z,13.30
2019-06-15T21:20:36.535Z,13.40
2019-06-15T21:23:06.602Z,14.40
2019-06-15T21:25:35.921Z,15.90
2019-06-15T21:28:06.690Z,16.00
2019-06-15T21:30:36.859Z,16.80
2019-06-15T21:33:07.036Z,18.20
2019-06-15T21:35:48.607Z,18.10
2019-06-15T21:38:06.836Z,19.00
2019-06-15T21:40:36.838Z,19.40
2019-06-15T21:43:07.055Z,20.00
2019-06-15T21:45:36.862Z,20.60
2019-06-15T21:48:06.761Z,21.10
2019-06-15T21:50:36.316Z,21.80
2019-06-15T21:53:06.902Z,22.50
2019-06-15T21:55:36.370Z,22.80
2019-06-15T21:58:12.912Z,23.00
2019-06-15T22:01:06.291Z,23.70
2019-06-15T22:03:36.832Z,23.90
2019-06-15T22:06:06.495Z,23.60
2019-06-15T22:08:37.028Z,24.10
2019-06-15T22:11:06.667Z,24.10
2019-06-15T22:13:37.344Z,24.20
2019-06-15T22:16:06.912Z,23.90
2019-06-15T22:18:36.424Z,24.10
2019-06-15T22:21:06.537Z,24.90
2019-06-15T22:23:36.423Z,25.10
2019-06-15T22:26:06.464Z,25.00
2019-06-15T22:28:36.284Z,24.30
2019-06-15T22:31:06.625Z,25.10
2019-06-15T22:33:36.328Z,25.40
2019-06-15T22:36:18.565Z,25.80
2019-06-15T22:38:36.830Z,25.40
2019-06-15T22:41:06.179Z,25.90
2019-06-15T22:43:36.362Z,25.60
2019-06-15T22:46:07.421Z,25.70
2019-06-15T22:48:36.276Z,25.90
2019-06-15T22:51:06.198Z,26.50
2019-06-15T22:53:36.468Z,25.80
2019-06-15T22:56:06.611Z,26.90
2019-06-15T22:58:35.617Z,26.90
2019-06-15T23:04:46.969Z,26.80
2019-06-15T23:07:16.098Z,27.80
2019-06-15T23:09:46.782Z,27.30
2019-06-15T23:12:15.912Z,27.50
2019-06-15T23:14:46.635Z,27.90
2019-06-15T23:17:15.730Z,28.20
2019-06-15T23:19:46.099Z,29.50
2019-06-15T23:22:16.983Z,30.20
2019-06-15T23:24:46.833Z,29.70
2019-06-15T23:27:16.542Z,30.30
2019-06-15T23:29:46.303Z,31.10
2019-06-15T23:32:16.941Z,31.40
2019-06-15T23:34:45.830Z,30.80
2019-06-15T23:37:16.204Z,31.80
2019-06-15T23:40:07.209Z,30.80
2019-06-15T23:42:36.405Z,30.80
2019-06-15T23:45:06.859Z,32.00
2019-06-15T23:47:36.912Z,32.70
2019-06-15T23:50:06.962Z,32.30
2019-06-15T23:52:36.265Z,32.70
2019-06-15T23:55:05.332Z,32.70
2019-06-15T23:57:36.779Z,33.10
